Time;durP1;ratioP1;P1;durP2;ratioP2;P2;SDS_P1;SDS_P2;PMS_P1;PMS_P2;Temp;Humidity;BMP_temperature;BMP_pressure;BME280_temperature;BME280_humidity;BME280_pressure;Samples;Min_cycle;Max_cycle;Signal;HPM_P1;HPM_P2
2021/07/08 00:01:45;;;;;;;3.08;1.50;;;;;;;19.68;67.20;100911.70;127803;1098;25040;-75
2021/07/08 00:04:15;;;;;;;;;;;;;;;19.61;67.42;100902.85;127851;1098;22385;-75
2021/07/08 00:06:44;;;;;;;3.30;1.40;;;;;;;19.58;67.35;100913.18;127821;1098;21263;-76
2021/07/08 00:09:14;;;;;;;3.73;1.45;;;;;;;19.56;67.43;100912.56;127963;1098;22391;-76
2021/07/08 00:11:44;;;;;;;2.08;1.38;;;;;;;19.57;67.27;100916.91;127821;1101;22385;-76
2021/07/08 00:14:14;;;;;;;3.75;1.70;;;;;;;19.57;67.67;100917.72;127758;1101;24547;-76
2021/07/08 00:16:43;;;;;;;3.30;1.80;;;;;;;19.54;67.57;100914.64;127272;1101;22448;-76
2021/07/08 00:19:13;;;;;;;2.50;1.50;;;;;;;19.54;67.75;100917.33;127313;1101;22404;-76
2021/07/08 00:21:43;;;;;;;2.40;1.40;;;;;;;19.53;67.92;100919.19;127775;1101;22388;-77
2021/07/08 00:24:12;;;;;;;4.33;1.57;;;;;;;19.52;67.65;100918.34;127728;1101;22404;-76
2021/07/08 00:26:42;;;;;;;2.90;1.43;;;;;;;19.48;68.01;100924.35;127715;1101;22420;-76
2021/07/08 00:29:11;;;;;;;3.07;1.77;;;;;;;19.46;67.87;100926.41;127417;1098;22382;-76
2021/07/08 00:31:41;;;;;;;3.75;1.70;;;;;;;19.45;67.81;100933.63;127969;1098;25043;-77
2021/07/08 00:34:10;;;;;;;3.30;1.80;;;;;;;19.44;68.04;100928.50;127767;1098;22423;-75
2021/07/08 00:36:40;;;;;;;5.20;2.33;;;;;;;19.42;68.32;100925.19;127790;1098;22393;-76
2021/07/08 00:39:10;;;;;;;2.93;1.98;;;;;;;19.39;68.16;100933.66;127809;1098;22407;-75
2021/07/08 00:41:39;;;;;;;2.88;1.93;;;;;;;19.38;67.97;100935.52;127810;1098;22375;-75
2021/07/08 00:44:09;;;;;;;2.88;1.75;;;;;;;19.38;68.35;100937.38;127819;1098;22396;-76
2021/07/08 00:46:38;;;;;;;2.85;1.55;;;;;;;19.37;68.52;100939.23;127815;1098;22379;-75
2021/07/08 00:49:08;;;;;;;3.38;1.68;;;;;;;19.36;68.56;100937.59;127787;1098;24272;-74
2021/07/08 00:51:37;;;;;;;3.83;1.83;;;;;;;19.34;68.59;100923.58;127839;1098;24524;-76
2021/07/08 00:54:08;;;;;;;3.60;1.78;;;;;;;19.32;68.93;100901.53;127864;1098;22376;-75
2021/07/08 00:56:37;;;;;;;2.73;1.70;;;;;;;19.32;69.00;100884.64;127947;1098;22394;-75
2021/07/08 00:59:10;;;;;;;3.38;1.78;;;;;;;19.33;68.92;100886.30;127851;1098;22392;-75
2021/07/08 01:01:41;;;;;;;2.45;1.55;;;;;;;19.34;69.33;100890.62;128002;1098;23147;-76
2021/07/08 01:04:11;;;;;;;;;;;;;;;19.36;69.24;100877.81;127886;1098;23143;-75
2021/07/08 01:06:45;;;;;;;3.13;2.15;;;;;;;19.37;69.15;100882.98;128051;1098;24528;-76
2021/07/08 01:09:15;;;;;;;3.13;2.15;;;;;;;19.40;69.50;100893.27;127994;1098;23693;-76
2021/07/08 01:11:47;;;;;;;2.48;2.25;;;;;;;19.42;69.12;100895.72;127912;1098;25264;-74
2021/07/08 01:14:17;;;;;;;3.40;2.03;;;;;;;19.42;68.92;100911.80;127874;1098;22420;-76
2021/07/08 01:16:46;;;;;;;2.70;2.23;;;;;;;19.40;69.22;100906.66;128004;1098;24515;-76
2021/07/08 01:19:16;;;;;;;2.20;1.88;;;;;;;19.39;69.22;100917.58;127933;1098;23154;-77
2021/07/08 01:21:45;;;;;;;3.50;2.40;;;;;;;19.40;69.22;100916.56;127996;1098;22475;-76
2021/07/08 01:24:15;;;;;;;7.00;3.40;;;;;;;19.39;69.23;100906.86;127960;1098;22369;-75
2021/07/08 01:26:45;;;;;;;4.55;2.03;;;;;;;19.37;69.01;100900.91;127795;1098;24276;-76
2021/07/08 01:29:15;;;;;;;5.98;2.45;;;;;;;19.35;69.34;100905.65;127794;1098;22372;-75
2021/07/08 01:31:45;;;;;;;5.20;2.43;;;;;;;19.35;69.19;100902.97;127787;1098;22408;-75
2021/07/08 01:34:14;;;;;;;5.75;1.88;;;;;;;19.35;69.71;100903.78;127849;1098;22375;-75
2021/07/08 01:36:46;;;;;;;3.03;1.90;;;;;;;19.36;69.63;100907.28;127969;1098;22402;-75
2021/07/08 01:39:17;;;;;;;3.05;2.08;;;;;;;19.37;69.32;100901.73;127789;1098;22376;-74
2021/07/08 01:41:47;;;;;;;2.45;1.88;;;;;;;19.38;69.58;100889.97;127840;1098;24272;-75
2021/07/08 01:44:17;;;;;;;3.53;2.30;;;;;;;19.39;69.30;100888.11;127803;1098;25050;-77
2021/07/08 01:46:47;;;;;;;3.90;2.33;;;;;;;19.40;69.64;100893.27;127843;1098;22407;-76
2021/07/08 01:49:16;;;;;;;6.35;3.00;;;;;;;19.41;69.33;100892.22;127849;1098;25040;-75
2021/07/08 01:51:47;;;;;;;5.68;2.30;;;;;;;19.41;69.63;100889.55;127935;1098;24514;-75
2021/07/08 01:54:17;;;;;;;5.57;2.37;;;;;;;19.41;69.26;100875.33;127830;1098;22374;-76
2021/07/08 01:56:47;;;;;;;6.45;3.68;;;;;;;19.40;69.22;100877.20;127929;1098;23332;-76
2021/07/08 01:59:17;;;;;;;7.40;3.00;;;;;;;19.38;69.18;100886.47;127980;1098;22375;-75
2021/07/08 02:01:47;;;;;;;10.45;3.80;;;;;;;19.36;69.40;100891.20;127836;1098;22372;-75
2021/07/08 02:04:16;;;;;;;6.03;3.60;;;;;;;19.32;69.60;100896.17;127860;1098;23142;-75
2021/07/08 02:06:46;;;;;;;5.38;3.53;;;;;;;19.31;69.67;100901.75;127877;1098;24530;-75
2021/07/08 02:09:15;;;;;;;4.85;3.20;;;;;;;19.31;70.05;100909.79;127836;1098;24528;-75
2021/07/08 02:11:45;;;;;;;5.93;3.20;;;;;;;19.30;69.87;100913.52;127844;1098;22379;-74
2021/07/08 02:14:15;;;;;;;6.63;3.35;;;;;;;19.28;70.01;100906.48;127869;1098;23145;-75
2021/07/08 02:16:44;;;;;;;9.43;4.17;;;;;;;19.29;69.96;100918.02;128003;1098;22379;-75
2021/07/08 02:19:15;;;;;;;9.18;3.50;;;;;;;19.27;70.05;100926.28;127767;1098;22376;-75
2021/07/08 02:21:44;;;;;;;6.45;3.83;;;;;;;19.27;70.43;100934.31;127844;1098;24272;-74
2021/07/08 02:24:15;;;;;;;6.60;4.08;;;;;;;19.28;70.19;100930.59;127937;1098;22379;-75
2021/07/08 02:26:44;;;;;;;5.15;3.85;;;;;;;19.28;70.10;100921.74;127840;1098;22481;-76
2021/07/08 02:29:16;;;;;;;8.13;3.80;;;;;;;19.26;70.38;100929.19;127833;1097;22378;-74
2021/07/08 02:31:45;;;;;;;7.55;3.70;;;;;;;19.23;70.62;100926.92;127786;1098;22390;-74
2021/07/08 02:34:15;;;;;;;5.78;4.10;;;;;;;19.20;70.24;100917.45;127959;1098;22391;-76
2021/07/08 02:36:45;;;;;;;5.55;3.93;;;;;;;19.22;70.50;100927.94;127845;1098;25089;-75
2021/07/08 02:39:14;;;;;;;8.95;4.20;;;;;;;19.24;70.58;100944.63;127955;1098;22376;-74
2021/07/08 02:41:44;;;;;;;8.25;4.45;;;;;;;19.24;70.76;100939.27;127967;1098;22379;-76
2021/07/08 02:44:13;;;;;;;4.45;3.78;;;;;;;19.24;70.79;100937.42;127821;1098;22398;-76
2021/07/08 02:46:43;;;;;;;4.45;3.78;;;;;;;19.24;70.64;100941.95;127963;1098;22392;-75
2021/07/08 02:49:13;;;;;;;5.88;3.28;;;;;;;19.25;70.49;100943.59;127819;1098;22379;-76
2021/07/08 02:51:42;;;;;;;4.90;3.13;;;;;;;19.24;70.50;100934.73;127838;1098;22379;-75
2021/07/08 02:54:12;;;;;;;5.58;3.78;;;;;;;19.20;70.23;100938.06;127974;1098;24272;-76
2021/07/08 02:56:41;;;;;;;7.15;3.40;;;;;;;19.19;70.50;100931.89;127958;1098;23144;-75
2021/07/08 02:59:11;;;;;;;4.15;3.33;;;;;;;19.19;70.49;100937.23;127958;1098;22392;-75
2021/07/08 03:01:41;;;;;;;6.58;3.55;;;;;;;19.20;70.62;100938.88;127832;1098;22379;-76
2021/07/08 03:04:10;;;;;;;6.13;3.40;;;;;;;19.21;70.96;100929.80;127979;1098;22380;-75
2021/07/08 03:06:40;;;;;;;5.70;4.25;;;;;;;19.23;70.72;100926.92;127814;1098;22363;-74
2021/07/08 03:09:10;;;;;;;7.13;4.48;;;;;;;19.25;70.81;100933.70;127841;1098;23145;-76
2021/07/08 03:11:39;;;;;;;10.58;6.00;;;;;;;19.26;70.64;100935.36;127807;1098;24272;-75
2021/07/08 03:14:09;;;;;;;9.43;5.13;;;;;;;19.27;70.38;100937.00;127886;1098;22379;-75
2021/07/08 03:16:38;;;;;;;9.08;6.83;;;;;;;19.27;70.73;100942.36;127800;1098;22379;-75
2021/07/08 03:19:08;;;;;;;10.70;6.03;;;;;;;19.28;70.39;100943.17;127834;1098;22407;-75
2021/07/08 03:21:37;;;;;;;11.70;6.23;;;;;;;19.28;70.49;100935.13;127825;1098;22371;-76
2021/07/08 03:24:07;;;;;;;11.30;5.98;;;;;;;19.30;70.91;100930.41;127852;1098;22398;-76
2021/07/08 03:26:37;;;;;;;16.58;7.68;;;;;;;19.32;70.83;100928.31;127810;1098;22379;-77
2021/07/08 03:29:06;;;;;;;13.48;6.73;;;;;;;19.34;70.62;100928.13;127891;1098;22395;-75
2021/07/08 03:31:36;;;;;;;18.03;7.40;;;;;;;19.35;70.78;100919.04;127949;1098;22394;-77
2021/07/08 03:34:06;;;;;;;16.50;7.90;;;;;;;19.37;70.66;100930.38;127785;1098;22394;-76
2021/07/08 03:36:35;;;;;;;17.33;8.85;;;;;;;19.39;70.88;100941.69;127964;1098;24320;-76
2021/07/08 03:39:06;;;;;;;15.48;8.20;;;;;;;19.40;70.22;100941.49;127826;1098;22395;-76
2021/07/08 03:41:35;;;;;;;21.53;8.60;;;;;;;19.40;70.79;100944.17;127988;1098;25019;-75
2021/07/08 03:44:06;;;;;;;19.43;7.58;;;;;;;19.40;70.66;100935.31;127882;1098;22379;-75
2021/07/08 03:46:35;;;;;;;15.85;7.35;;;;;;;19.40;70.72;100938.81;127846;1098;22397;-75
2021/07/08 03:49:05;;;;;;;20.13;8.70;;;;;;;19.42;70.40;100947.44;127931;1098;22394;-75
2021/07/08 03:51:35;;;;;;;16.85;8.80;;;;;;;19.42;70.80;100950.13;127809;1098;22449;-76
2021/07/08 03:54:06;;;;;;;17.03;7.98;;;;;;;19.45;71.04;100960.42;127805;1098;22374;-75
2021/07/08 03:56:35;;;;;;;22.40;10.28;;;;;;;19.47;70.70;100965.59;127801;1098;22374;-76
2021/07/08 03:59:05;;;;;;;18.33;8.70;;;;;;;19.47;70.77;100966.41;127927;1098;24268;-74
2021/07/08 04:01:34;;;;;;;19.13;8.68;;;;;;;19.50;70.77;100967.84;127805;1098;24521;-77
2021/07/08 04:04:04;;;;;;;14.50;7.93;;;;;;;19.55;70.56;100972.56;127804;1098;22393;-74
2021/07/08 04:06:34;;;;;;;19.05;8.00;;;;;;;19.59;71.06;100973.77;127820;1098;22436;-75
2021/07/08 04:09:05;;;;;;;19.23;7.78;;;;;;;19.63;70.86;100966.98;127920;1098;22391;-75
2021/07/08 04:11:34;;;;;;;15.70;7.18;;;;;;;19.66;70.49;100964.73;127774;1098;22409;-76
2021/07/08 04:14:04;;;;;;;20.55;7.90;;;;;;;19.67;70.22;100957.50;127944;1098;22388;-77
2021/07/08 04:16:34;;;;;;;15.28;7.90;;;;;;;19.65;69.80;100952.34;127786;1098;22425;-76
2021/07/08 04:19:04;;;;;;;15.63;7.28;;;;;;;19.63;69.94;100953.58;127958;1098;22391;-76
2021/07/08 04:21:33;;;;;;;15.93;6.40;;;;;;;19.62;70.44;100939.33;127820;1098;22366;-76
2021/07/08 04:24:03;;;;;;;14.38;6.70;;;;;;;19.62;70.29;100935.83;127827;1098;22395;-77
2021/07/08 04:26:33;;;;;;;15.00;8.40;;;;;;;19.59;70.48;100938.94;127795;1098;22380;-77
2021/07/08 04:29:04;;;;;;;12.08;6.90;;;;;;;19.57;70.35;100935.66;127947;1098;22397;-75
2021/07/08 04:31:33;;;;;;;14.30;7.85;;;;;;;19.57;70.33;100935.66;127855;1098;22509;-75
2021/07/08 04:34:03;;;;;;;17.45;6.98;;;;;;;19.61;70.36;100936.88;127945;1098;22376;-77
2021/07/08 04:36:33;;;;;;;14.43;6.85;;;;;;;19.63;70.78;100938.34;127778;1098;22420;-76
2021/07/08 04:39:03;;;;;;;12.93;6.45;;;;;;;19.65;70.41;100948.84;127827;1098;22398;-75
2021/07/08 04:41:33;;;;;;;15.10;8.23;;;;;;;19.67;70.37;100946.78;127856;1098;22378;-76
2021/07/08 04:44:03;;;;;;;11.75;6.90;;;;;;;19.68;70.34;100946.55;127783;1101;24209;-76
2021/07/08 04:46:33;;;;;;;16.28;7.43;;;;;;;19.68;70.11;100948.41;127758;1101;22584;-76
2021/07/08 04:49:02;;;;;;;10.70;7.10;;;;;;;19.67;69.97;100952.14;127807;1101;22405;-75
2021/07/08 04:51:32;;;;;;;13.07;6.40;;;;;;;19.68;70.25;100962.63;127743;1101;22365;-76
2021/07/08 04:54:02;;;;;;;13.85;9.20;;;;;;;19.72;70.35;100965.71;127754;1101;22484;-76
2021/07/08 04:56:32;;;;;;;13.88;8.13;;;;;;;19.77;70.46;100973.95;127779;1101;22379;-75
2021/07/08 04:59:01;;;;;;;10.58;6.38;;;;;;;19.81;70.43;100971.66;127373;1101;22378;-76
2021/07/08 05:01:31;;;;;;;12.73;6.98;;;;;;;19.85;70.05;100980.92;127766;1101;23847;-75
2021/07/08 05:04:01;;;;;;;12.60;7.77;;;;;;;19.87;70.19;100978.86;127830;1098;22391;-75
2021/07/08 05:06:30;;;;;;;12.13;7.80;;;;;;;19.91;70.19;100972.02;127863;1098;22381;-75
2021/07/08 05:09:00;;;;;;;12.85;7.50;;;;;;;19.94;70.01;100958.19;127844;1098;24518;-75
2021/07/08 05:11:29;;;;;;;14.33;6.98;;;;;;;20.00;69.58;100967.25;127842;1098;22381;-75
2021/07/08 05:13:59;;;;;;;15.80;6.88;;;;;;;20.04;69.46;100969.27;127968;1098;22375;-75
2021/07/08 05:16:28;;;;;;;12.55;6.83;;;;;;;20.09;69.64;100973.98;127801;1098;22824;-76
2021/07/08 05:18:58;;;;;;;10.85;6.40;;;;;;;20.13;69.65;100972.53;127853;1098;22410;-74
2021/07/08 05:21:29;;;;;;;12.98;9.20;;;;;;;20.17;69.17;100973.74;127839;1098;22376;-74
2021/07/08 05:24:01;;;;;;;13.45;8.45;;;;;;;20.17;69.11;100973.74;127883;1098;22367;-75
2021/07/08 05:26:31;;;;;;;14.35;8.33;;;;;;;20.19;69.53;100969.81;127954;1098;22372;-75
2021/07/08 05:29:00;;;;;;;15.23;10.08;;;;;;;20.22;69.38;100973.90;127908;1098;22391;-75
2021/07/08 05:31:30;;;;;;;16.95;11.10;;;;;;;20.24;68.95;100976.38;127824;1098;22376;-76
2021/07/08 05:34:00;;;;;;;15.28;11.60;;;;;;;20.25;69.27;100967.28;127935;1098;24710;-77
2021/07/08 05:36:30;;;;;;;21.35;14.60;;;;;;;20.27;69.00;100954.48;127962;1098;24515;-77
2021/07/08 05:39:00;;;;;;;24.23;16.08;;;;;;;20.24;68.60;100953.05;127904;1098;22381;-77
2021/07/08 05:41:29;;;;;;;15.15;11.48;;;;;;;20.19;68.99;100945.67;127871;1097;24521;-77
2021/07/08 05:43:59;;;;;;;15.90;12.15;;;;;;;20.17;68.92;100950.41;127802;1098;24524;-77
2021/07/08 05:46:29;;;;;;;17.20;13.78;;;;;;;20.13;68.91;100941.16;127816;1098;22388;-77
2021/07/08 05:48:59;;;;;;;22.53;17.25;;;;;;;20.06;69.73;100950.27;127820;1098;22485;-77
2021/07/08 05:51:31;;;;;;;19.45;14.50;;;;;;;20.01;69.75;100961.66;127769;1098;22404;-77
2021/07/08 05:54:01;;;;;;;21.63;14.55;;;;;;;19.98;69.70;100962.08;127873;1098;22454;-77
2021/07/08 05:56:30;;;;;;;16.37;11.50;;;;;;;19.90;70.50;100965.02;127817;1098;22831;-76
2021/07/08 05:59:00;;;;;;;25.20;12.73;;;;;;;19.85;71.08;100983.59;127807;1097;22431;-77
2021/07/08 06:01:30;;;;;;;19.88;13.05;;;;;;;19.80;71.59;100972.70;127772;1098;24520;-76
2021/07/08 06:03:59;;;;;;;20.45;14.08;;;;;;;19.79;71.98;100979.08;127807;1098;22373;-74
2021/07/08 06:06:29;;;;;;;19.43;11.88;;;;;;;19.77;72.16;100978.49;127952;1098;22372;-74
2021/07/08 06:08:59;;;;;;;17.58;11.85;;;;;;;19.72;72.44;100974.57;127831;1098;22391;-74
2021/07/08 06:11:28;;;;;;;22.75;12.03;;;;;;;19.66;73.07;100978.13;127842;1098;24524;-74
2021/07/08 06:13:57;;;;;;;22.03;15.08;;;;;;;19.59;73.23;100984.49;127989;1097;24537;-74
2021/07/08 06:16:27;;;;;;;32.60;26.93;;;;;;;19.53;73.33;100986.19;127987;1098;23202;-74
2021/07/08 06:18:57;;;;;;;21.98;14.95;;;;;;;19.45;73.57;100983.72;127858;1098;22396;-73
2021/07/08 06:21:27;;;;;;;21.18;17.50;;;;;;;19.42;73.89;100986.81;127840;1098;22400;-73
2021/07/08 06:23:56;;;;;;;18.10;15.90;;;;;;;19.40;74.01;100999.62;127831;1098;22487;-75
2021/07/08 06:26:25;;;;;;;21.18;17.25;;;;;;;19.35;74.43;101007.45;127792;1098;22424;-74
2021/07/08 06:28:55;;;;;;;23.53;17.90;;;;;;;19.32;74.25;101006.00;127818;1098;22382;-73
2021/07/08 06:31:24;;;;;;;23.55;19.40;;;;;;;19.31;74.22;101003.55;127849;1098;24524;-73
2021/07/08 06:33:54;;;;;;;24.28;18.60;;;;;;;19.32;74.93;100997.15;127843;1098;24537;-73
2021/07/08 06:36:24;;;;;;;25.50;19.45;;;;;;;19.34;74.94;100987.05;127878;1098;24545;-75
2021/07/08 06:38:54;;;;;;;27.03;19.25;;;;;;;19.35;74.85;100988.69;127787;1098;22396;-74
2021/07/08 06:41:23;;;;;;;22.58;20.13;;;;;;;19.34;75.15;100981.70;127802;1098;22382;-74
2021/07/08 06:43:53;;;;;;;24.70;18.75;;;;;;;19.34;75.08;100971.80;127825;1098;22382;-75
2021/07/08 06:46:30;;;;;;;26.63;22.75;;;;;;;19.35;75.24;100964.59;127787;1098;22370;-75
2021/07/08 06:49:01;;;;;;;26.25;23.43;;;;;;;19.36;75.63;100963.54;127841;1098;24528;-74
2021/07/08 06:51:31;;;;;;;26.98;24.08;;;;;;;19.35;75.43;100962.72;127838;1098;22380;-74
2021/07/08 06:54:05;;;;;;;27.08;24.18;;;;;;;19.35;75.55;100945.83;127809;1098;22401;-74
2021/07/08 06:56:35;;;;;;;29.90;24.58;;;;;;;19.30;75.49;100924.23;127849;1098;22401;-75
2021/07/08 06:59:04;;;;;;;28.80;25.70;;;;;;;19.25;75.74;100924.84;127813;1098;22401;-74
2021/07/08 07:01:34;;;;;;;31.20;27.10;;;;;;;19.24;75.95;100915.17;127844;1098;22382;-75
2021/07/08 07:04:04;;;;;;;36.00;32.30;;;;;;;19.28;76.67;100916.38;127826;1098;22370;-77
2021/07/08 07:06:33;;;;;;;35.23;31.70;;;;;;;19.27;76.30;100918.25;127921;1098;22407;-74
2021/07/08 07:09:03;;;;;;;35.58;31.88;;;;;;;19.30;76.96;100930.41;127913;1098;22379;-73
2021/07/08 07:11:33;;;;;;;37.50;33.48;;;;;;;19.32;76.84;100924.81;127879;1098;22376;-73
2021/07/08 07:14:03;;;;;;;38.75;34.68;;;;;;;19.34;77.53;100934.30;127842;1098;22398;-74
2021/07/08 07:16:33;;;;;;;52.88;47.95;;;;;;;19.40;77.02;100941.49;127767;1098;23147;-73
2021/07/08 07:19:03;;;;;;;37.20;33.40;;;;;;;19.47;77.32;100941.47;127774;1098;22428;-75
2021/07/08 07:21:32;;;;;;;36.83;32.07;;;;;;;19.52;77.37;100941.64;127824;1098;22401;-72
2021/07/08 07:24:03;;;;;;;35.90;32.03;;;;;;;19.57;77.44;100939.16;127827;1098;25041;-73
2021/07/08 07:26:32;;;;;;;40.00;29.95;;;;;;;19.64;77.56;100937.30;127857;1098;22372;-74
2021/07/08 07:29:02;;;;;;;44.13;39.65;;;;;;;19.75;78.08;100952.70;127874;1098;23148;-74
2021/07/08 07:31:31;;;;;;;34.98;31.28;;;;;;;19.81;77.42;100953.72;127789;1098;22382;-74
2021/07/08 07:34:01;;;;;;;31.15;27.78;;;;;;;19.88;77.37;100967.91;127830;1098;22398;-73
2021/07/08 07:36:30;;;;;;;32.98;27.53;;;;;;;19.94;77.42;100987.69;127872;1098;24551;-75
2021/07/08 07:39:00;;;;;;;150.65;138.85;;;;;;;20.01;77.38;100991.16;127852;1098;24530;-74
2021/07/08 07:41:29;;;;;;;45.35;41.00;;;;;;;20.07;77.04;100979.57;127812;1098;22381;-75
2021/07/08 07:43:58;;;;;;;27.70;24.78;;;;;;;20.11;76.92;100979.96;127826;1098;22380;-74
2021/07/08 07:46:28;;;;;;;29.03;23.93;;;;;;;20.14;76.58;100988.40;127764;1098;22821;-73
2021/07/08 07:48:57;;;;;;;31.60;27.20;;;;;;;20.16;76.29;100991.70;127917;1098;24279;-74
2021/07/08 07:51:27;;;;;;;27.78;24.40;;;;;;;20.18;75.95;100989.61;127833;1098;22385;-74
2021/07/08 07:53:56;;;;;;;25.85;22.23;;;;;;;20.21;76.00;100999.09;127841;1098;22378;-73
2021/07/08 07:56:26;;;;;;;32.38;24.83;;;;;;;20.22;75.75;100998.86;128091;1098;22828;-73
2021/07/08 07:58:55;;;;;;;26.68;22.68;;;;;;;20.23;75.39;100994.34;128009;1098;22388;-73
2021/07/08 08:01:25;;;;;;;27.30;24.50;;;;;;;20.27;75.53;100994.73;127837;1098;22395;-74
2021/07/08 08:03:57;;;;;;;30.58;25.90;;;;;;;20.29;75.15;100974.67;127990;1098;22391;-73
2021/07/08 08:09:15;;;;;;;27.48;24.58;;;;;;;20.42;75.57;100987.18;127863;1098;22397;-74
2021/07/08 08:11:45;;;;;;;28.45;24.65;;;;;;;20.49;75.42;100992.50;127830;1098;22378;-74
2021/07/08 08:14:16;;;;;;;29.28;26.23;;;;;;;20.56;75.52;100988.78;127845;1098;22378;-73
2021/07/08 08:16:45;;;;;;;30.20;27.08;;;;;;;20.61;74.86;100985.44;127859;1098;22383;-73
2021/07/08 08:19:15;;;;;;;29.15;25.18;;;;;;;20.65;75.02;100986.63;127938;1098;22382;-74
2021/07/08 08:21:45;;;;;;;31.10;27.45;;;;;;;20.71;75.07;100991.13;127937;1098;22370;-74
2021/07/08 08:24:14;;;;;;;31.37;28.13;;;;;;;20.78;74.79;100986.52;127852;1098;22393;-74
2021/07/08 08:26:47;;;;;;;35.08;31.68;;;;;;;20.85;74.62;100986.47;127868;1098;22382;-74
2021/07/08 08:29:20;;;;;;;35.65;32.05;;;;;;;20.88;74.30;100989.53;127875;1098;24565;-77
2021/07/08 08:31:49;;;;;;;40.70;36.65;;;;;;;20.89;73.70;100984.98;127881;1098;22395;-74
2021/07/08 08:34:19;;;;;;;44.90;40.73;;;;;;;20.89;73.69;100987.66;127919;1098;22383;-72
2021/07/08 08:36:48;;;;;;;39.87;35.93;;;;;;;20.92;73.55;100992.59;127832;1098;22485;-73
2021/07/08 08:39:18;;;;;;;44.70;40.40;;;;;;;20.95;73.18;100986.78;127902;1098;22394;-72
2021/07/08 08:41:48;;;;;;;47.25;42.70;;;;;;;21.00;73.39;100988.83;127822;1098;22706;-73
2021/07/08 08:44:18;;;;;;;46.33;41.45;;;;;;;21.05;73.53;100975.54;127962;1098;22383;-73
2021/07/08 08:46:51;;;;;;;46.60;42.23;;;;;;;21.09;72.86;100972.20;127879;1098;22397;-74
2021/07/08 08:49:21;;;;;;;52.55;47.65;;;;;;;21.09;72.91;100982.95;127930;1098;23124;-73
2021/07/08 08:51:51;;;;;;;43.20;38.65;;;;;;;21.06;72.30;100966.42;127731;1098;28660;-74
2021/07/08 08:54:20;;;;;;;44.05;39.90;;;;;;;21.10;72.56;100967.65;127821;1098;22391;-73
2021/07/08 08:56:49;;;;;;;44.70;40.60;;;;;;;21.15;72.56;100970.48;127864;1098;22377;-76
2021/07/08 08:59:19;;;;;;;47.43;42.90;;;;;;;21.19;71.95;100977.04;127800;1098;28490;-75
2021/07/08 09:02:13;;;;;;;53.00;47.88;;;;;;;21.20;71.87;100983.26;127828;1098;22388;-76
2021/07/08 09:04:43;;;;;;;48.70;44.18;;;;;;;21.20;71.91;100988.63;127974;1098;24189;-75
2021/07/08 09:07:32;;;;;;;55.30;50.35;;;;;;;21.23;71.96;100993.56;127808;1098;22830;-75
2021/07/08 09:10:12;;;;;;;48.73;44.15;;;;;;;21.26;72.09;100991.25;127981;1098;22397;-75
2021/07/08 09:12:42;;;;;;;49.25;44.83;;;;;;;21.29;71.80;100987.27;127847;1098;24524;-74
2021/07/08 09:15:21;;;;;;;49.58;44.68;;;;;;;21.32;71.68;100981.45;127857;1098;24540;-74
2021/07/08 09:17:52;;;;;;;47.43;43.05;;;;;;;21.32;71.48;100982.27;127842;1098;23456;-72
2021/07/08 09:20:22;;;;;;;45.08;40.93;;;;;;;21.35;71.52;100986.42;127923;1098;22382;-73
2021/07/08 09:22:52;;;;;;;45.80;41.03;;;;;;;21.36;71.47;100988.08;127928;1098;24259;-73
2021/07/08 09:25:28;;;;;;;44.90;40.70;;;;;;;21.33;71.33;100993.88;127948;1098;22370;-75
2021/07/08 09:28:23;;;;;;;42.95;38.58;;;;;;;21.34;71.47;100998.19;127866;1098;24193;-74
2021/07/08 09:31:02;;;;;;;42.28;38.15;;;;;;;21.35;71.46;100986.42;127951;1098;22375;-73
2021/07/08 09:33:41;;;;;;;49.08;44.38;;;;;;;21.39;70.92;100987.61;127867;1098;22401;-74
2021/07/08 09:36:16;;;;;;;57.35;51.53;;;;;;;21.42;70.94;100989.03;127895;1098;22378;-74
2021/07/08 09:38:57;;;;;;;49.23;44.53;;;;;;;21.43;70.75;100990.70;127889;1098;22382;-72
2021/07/08 09:41:29;;;;;;;48.73;43.83;;;;;;;21.43;70.89;100994.20;127834;1098;22382;-73
2021/07/08 09:43:59;;;;;;;44.43;40.33;;;;;;;21.43;70.86;100999.58;127843;1098;22397;-74
2021/07/08 09:46:36;;;;;;;47.73;43.25;;;;;;;21.44;70.74;100993.15;127932;1097;22405;-74
2021/07/08 09:49:09;;;;;;;49.63;44.68;;;;;;;21.46;70.91;100991.06;127948;1098;22381;-75
2021/07/08 09:51:41;;;;;;;45.20;40.83;;;;;;;21.47;70.48;100989.20;127830;1098;24285;-74
2021/07/08 09:54:25;;;;;;;46.68;42.05;;;;;;;21.45;70.59;100992.09;127852;1098;22385;-74
2021/07/08 09:56:56;;;;;;;50.95;45.68;;;;;;;21.45;70.75;100989.41;127816;1098;22381;-74
2021/07/08 09:59:37;;;;;;;50.60;45.60;;;;;;;21.47;70.75;100997.27;127825;1098;22400;-74
2021/07/08 10:02:07;;;;;;;46.20;41.70;;;;;;;21.52;70.87;100975.89;127851;1096;22398;-77
2021/07/08 10:04:38;;;;;;;45.88;41.45;;;;;;;21.53;70.91;100977.55;128128;1098;22388;-74
2021/07/08 10:07:08;;;;;;;46.38;40.70;;;;;;;21.54;70.71;100977.31;127814;1098;22471;-75
2021/07/08 10:09:38;;;;;;;47.10;42.30;;;;;;;21.56;70.59;100972.55;127837;1098;22433;-75
2021/07/08 10:12:08;;;;;;;46.08;41.83;;;;;;;21.59;70.41;100974.78;127835;1098;22382;-74
2021/07/08 10:14:39;;;;;;;44.98;40.78;;;;;;;21.60;70.48;100967.53;127831;1098;24196;-73
2021/07/08 10:17:11;;;;;;;45.05;39.93;;;;;;;21.61;70.50;100969.17;127797;1098;22382;-74
2021/07/08 10:19:46;;;;;;;42.60;38.53;;;;;;;21.58;70.53;100962.37;127839;1098;22382;-74
2021/07/08 10:22:16;;;;;;;43.45;39.03;;;;;;;21.61;70.63;100963.79;127812;1097;22401;-74
2021/07/08 10:24:45;;;;;;;40.83;37.03;;;;;;;21.63;70.94;100959.02;127807;1098;22382;-75
2021/07/08 10:27:17;;;;;;;39.08;35.10;;;;;;;21.69;70.72;100962.66;127837;1098;22380;-74
2021/07/08 10:29:48;;;;;;;39.27;34.30;;;;;;;21.76;70.42;100963.38;127814;1098;22382;-74
2021/07/08 10:32:18;;;;;;;;;;;;;;;21.76;70.21;100963.38;127848;1098;22404;-74
2021/07/08 10:34:51;;;;;;;46.83;41.68;;;;;;;21.74;70.25;100962.81;127816;1098;21276;-74
2021/07/08 10:37:27;;;;;;;50.83;45.35;;;;;;;21.75;70.07;100956.38;127826;1098;25053;-74
2021/07/08 10:40:29;;;;;;;50.68;45.68;;;;;;;21.79;70.02;100957.55;127807;1098;24275;-73
2021/07/08 10:43:13;;;;;;;52.05;46.93;;;;;;;21.84;70.49;100958.52;127768;1098;22408;-75
2021/07/08 10:45:46;;;;;;;52.80;47.70;;;;;;;21.92;69.89;100945.80;127825;1098;25053;-73
2021/07/08 10:48:24;;;;;;;52.38;47.08;;;;;;;22.03;70.08;100945.04;127831;1098;22388;-75
2021/07/08 10:50:55;;;;;;;54.48;49.03;;;;;;;22.14;70.18;100946.94;127803;1098;22382;-74
2021/07/08 10:53:37;;;;;;;54.30;48.90;;;;;;;22.24;69.89;100936.46;127856;1098;22426;-73
2021/07/08 10:56:12;;;;;;;50.17;44.93;;;;;;;22.33;69.85;100944.22;127863;1096;22385;-73
2021/07/08 10:58:56;;;;;;;53.65;48.53;;;;;;;22.43;69.70;100950.67;127833;1098;22385;-73
2021/07/08 11:01:50;;;;;;;43.88;39.48;;;;;;;22.50;69.42;100945.99;127813;1098;22463;-73
2021/07/08 11:04:48;;;;;;;44.08;39.70;;;;;;;22.49;68.66;100941.67;127311;1101;22394;-73
2021/07/08 11:07:22;;;;;;;40.35;36.20;;;;;;;22.45;68.67;100934.27;126855;1105;22430;-74
2021/07/08 11:10:05;;;;;;;39.98;35.80;;;;;;;22.47;68.73;100940.25;126856;1105;22410;-74
2021/07/08 11:12:39;;;;;;;32.45;29.03;;;;;;;22.49;68.49;100933.59;126928;1105;22581;-75
2021/07/08 11:15:10;;;;;;;30.60;27.38;;;;;;;22.54;68.36;100946.34;126865;1105;22411;-73
2021/07/08 11:17:42;;;;;;;;;;;;;;;22.54;68.21;100943.66;126914;1105;23103;-73
2021/07/08 11:20:29;;;;;;;30.80;27.78;;;;;;;22.54;68.69;100955.23;126872;1105;21295;-74
2021/07/08 11:23:47;;;;;;;31.48;28.18;;;;;;;22.57;67.71;100956.66;126834;1105;25633;-73
2021/07/08 11:26:59;;;;;;;32.75;29.38;;;;;;;22.59;68.46;100959.91;126808;1108;22422;-72
2021/07/08 11:29:40;;;;;;;31.28;28.00;;;;;;;22.62;68.61;100951.38;126760;1108;22430;-73
2021/07/08 11:32:49;;;;;;;31.58;26.13;;;;;;;22.67;68.57;100966.85;126829;1108;24575;-73